Thalassa Niki — 9V2233 — position and weather

sailwx.info

Track history (hours):
 
Tides and Currents Weather Stations Pressure Air Temp Water Temp Dewpoint Dewpoint Depression Visibility Wind Speed Wind Dir Waves Ship Positions

Thalassa Niki

Last reported at 2018-Jun-23 18:58 UTC. Time now 2018-Jun-23 19:16 UTC.
Position N 51°18' E 004°16'.

Length 368 m; draft 14.3 m.

Type: Ship (hazmat cat D). MMSI: 564728000.

Date/timePositionNaut miles runAvg speedWind from/ knotsBaromVisibWave heightAir tempDewpointWater temp
2018-Jun-23 18:58N 51°18' E 004°16'0 0.0
2018-Jun-23 18:28N 51°18' E 004°16'0 0.0
2018-Jun-23 17:58N 51°18' E 004°16'0 0.0
2018-Jun-23 17:28N 51°18' E 004°16'0 0.0
2018-Jun-23 16:58N 51°18' E 004°16'0 0.0
2018-Jun-23 16:28N 51°18' E 004°16'0 0.0
2018-Jun-23 15:58N 51°18' E 004°16'0 0.0
2018-Jun-23 15:28N 51°18' E 004°16'0 0.0
2018-Jun-23 14:58N 51°18' E 004°16'0 0.0
2018-Jun-23 14:28N 51°18' E 004°16'0 0.0
2018-Jun-23 13:58N 51°18' E 004°16'0 0.0
2018-Jun-23 13:28N 51°18' E 004°16'0 0.0
2018-Jun-23 12:58N 51°18' E 004°16'0 0.0
2018-Jun-23 12:28N 51°18' E 004°16'0 0.0
2018-Jun-23 11:58N 51°18' E 004°16'0 0.0
2018-Jun-23 11:28N 51°18' E 004°16'0 0.0
2018-Jun-23 10:58N 51°18' E 004°16'0 0.0
2018-Jun-23 10:28N 51°18' E 004°16'0 0.0
2018-Jun-23 09:58N 51°18' E 004°16'0 0.0
2018-Jun-23 09:28N 51°18' E 004°16'0 0.0
2018-Jun-23 08:58N 51°18' E 004°16'0 0.0
2018-Jun-23 08:28N 51°18' E 004°16'0 0.0
2018-Jun-23 07:58N 51°18' E 004°16'0 0.1
2018-Jun-23 07:28N 51°18' E 004°16'0 0.1
2018-Jun-23 06:58N 51°18' E 004°16'0 0.0
2018-Jun-23 06:28N 51°18' E 004°16'0 0.0
2018-Jun-23 05:58N 51°18' E 004°16'0 0.0
2018-Jun-23 05:28N 51°18' E 004°16'0 0.0
2018-Jun-23 04:58N 51°18' E 004°16'0 0.0
2018-Jun-23 04:28N 51°18' E 004°16'0 0.0
2018-Jun-23 03:58N 51°18' E 004°16'0 0.0
2018-Jun-23 03:28N 51°18' E 004°16'0 0.0
2018-Jun-23 02:58N 51°18' E 004°16'0 0.0
2018-Jun-23 02:28N 51°18' E 004°16'0 0.0
2018-Jun-23 01:58N 51°18' E 004°16'0 0.0
2018-Jun-23 01:28N 51°18' E 004°16'0 0.0
2018-Jun-23 00:58N 51°18' E 004°16'0 0.0
2018-Jun-23 00:28N 51°18' E 004°16'0 0.0
2018-Jun-22 23:58N 51°18' E 004°16'0 0.0
2018-Jun-22 23:28N 51°18' E 004°16'0 0.0
2018-Jun-22 22:58N 51°18' E 004°16'0 0.0
2018-Jun-22 22:28N 51°18' E 004°16'0 0.0
2018-Jun-22 21:58N 51°18' E 004°16'0 0.0
2018-Jun-22 21:28N 51°18' E 004°16'0 0.0
2018-Jun-22 21:00N 51°18' E 004°16'1 1.2
2018-Jun-22 20:30N 51°18' E 004°16'2 4.7
2018-Jun-22 20:00N 51°21' E 004°16'5 9.2
2018-Jun-22 19:30N 51°24' E 004°11'510.8
2018-Jun-22 19:00N 51°23' E 004°02'3 6.7
2018-Jun-22 18:30N 51°24' E 003°58'511.0
2018-Jun-22 18:00N 51°21' E 003°51'612.3
2018-Jun-22 17:30N 51°24' E 003°43'5 9.5
2018-Jun-22 17:00N 51°26' E 003°36'4 8.7
2018-Jun-22 16:30N 51°25' E 003°29'815.4
2018-Jun-22 16:01N 51°24' E 003°16'714.8
2018-Jun-22 15:31N 51°24' E 003°05'714.6
2018-Jun-22 15:00N 51°25' E 002°53'612.9
2018-Jun-22 14:30N 51°22' E 002°44'3 5.2
2018-Jun-22 14:00N 51°22' E 002°39'3 5.1
2018-Jun-22 13:30N 51°22' E 002°35'3 5.5
2018-Jun-22 13:00N 51°22' E 002°31'3 5.8
2018-Jun-22 12:30N 51°21' E 002°27'3 5.9
2018-Jun-22 12:00N 51°20' E 002°22'3 5.9
2018-Jun-22 11:30N 51°19' E 002°18'3 6.5
2018-Jun-22 11:00N 51°17' E 002°13'3 6.4
2018-Jun-22 10:30N 51°16' E 002°09'3 6.7
2018-Jun-22 10:00N 51°13' E 002°05'714.4
2018-Jun-22 09:30N 51°10' E 001°54'714.7
2018-Jun-22 09:01N 51°07' E 001°44'815.4
2018-Jun-22 08:31N 51°01' E 001°36'917.6
2018-Jun-22 08:01N 50°53' E 001°29'918.6
2018-Jun-22 07:30N 50°44' E 001°24'917.7
2018-Jun-22 07:00N 50°38' E 001°15'918.0
2018-Jun-22 06:30N 50°33' E 001°03'917.9
2018-Jun-22 06:00N 50°29' E 000°50'1019.2
2018-Jun-22 05:30N 50°26' E 000°36'1019.7
2018-Jun-22 05:00N 50°23' E 000°21'1020.3
2018-Jun-22 04:30N 50°20' E 000°06'1121.1
2018-Jun-22 04:00N 50°17' W 000°10'1121.4
2018-Jun-22 03:31N 50°15' W 000°26'1121.5
2018-Jun-22 03:01N 50°13' W 000°43'1121.3
2018-Jun-22 02:30N 50°10' W 000°59'1121.3
2018-Jun-22 02:00N 50°06' W 001°14'1121.3
2018-Jun-22 01:29N 50°04' W 001°31'2320.7
2018-Jun-22 00:21N 49°58' W 002°06'720.1
2018-Jun-22 00:00N 49°56' W 002°17'1019.8
2018-Jun-21 23:31N 49°53' W 002°31'1019.6
2018-Jun-21 23:00N 49°49' W 002°45'1019.6
2018-Jun-21 22:30N 49°45' W 002°59'1019.4
2018-Jun-21 22:00N 49°41' W 003°13'1019.4
2018-Jun-21 21:30N 49°36' W 003°26'1019.6
2018-Jun-21 21:00N 49°32' W 003°40'1019.6
2018-Jun-21 20:29N 49°28' W 003°54'5518.3
2018-Jun-21 17:31N 49°01' W 005°06'018.3
2018-Jun-21 17:30N 49°00' W 005°06'917.8
2018-Jun-21 17:00N 48°56' W 005°18'917.6
2018-Jun-21 16:31N 48°51' W 005°29'917.4
2018-Jun-21 16:00N 48°45' W 005°39'917.5
2018-Jun-21 15:29N 48°37' W 005°46'1115.8
2018-Jun-21 14:48N 48°28' W 005°54'3517.7
2018-Jun-21 12:48N 47°56' W 006°17'2918.7
2018-Jun-21 11:15N 47°31' W 006°38'2319.0
2018-Jun-21 10:02N 47°10' W 006°53'318.8
2018-Jun-21 09:54N 47°08' W 006°55'11418.5
2018-Jun-21 03:45N 45°27' W 008°09'34718.1
2018-Jun-20 08:33N 39°48' W 009°51'119.7
2018-Jun-20 08:29N 39°47' W 009°51'1219.2
2018-Jun-20 07:51N 39°34' W 009°51'819.4
2018-Jun-20 07:27N 39°27' W 009°51'919.6
2018-Jun-20 07:00N 39°18' W 009°51'1019.6
2018-Jun-20 06:30N 39°08' W 009°51'1019.4
2018-Jun-20 06:00N 38°58' W 009°52'1019.3
2018-Jun-20 05:31N 38°49' W 009°52'1019.3
2018-Jun-20 05:00N 38°39' W 009°50'918.8
2018-Jun-20 04:30N 38°30' W 009°48'918.3
2018-Jun-20 04:00N 38°21' W 009°45'918.5
2018-Jun-20 03:31N 38°12' W 009°42'918.9
2018-Jun-20 03:01N 38°03' W 009°39'1019.0
2018-Jun-20 02:31N 37°54' W 009°37'1118.9
2018-Jun-20 01:56N 37°43' W 009°34'819.1
2018-Jun-20 01:30N 37°35' W 009°32'2418.9
2018-Jun-20 00:13N 37°11' W 009°25'819.5
2018-Jun-19 23:47N 37°03' W 009°22'719.7
2018-Jun-19 23:26N 36°56' W 009°20'2118.1
2018-Jun-19 22:16N 36°42' W 009°01'619.1
2018-Jun-19 21:57N 36°40' W 008°54'1219.3
2018-Jun-19 21:20N 36°37' W 008°39'619.4
2018-Jun-19 21:00N 36°35' W 008°32'1019.2
2018-Jun-19 20:31N 36°32' W 008°20'1019.4
2018-Jun-19 20:00N 36°29' W 008°09'33118.5
2018-Jun-19 02:07N 36°33' W 001°16'419.2
2018-Jun-19 01:55N 36°34' W 001°12'919.1
2018-Jun-19 01:28N 36°35' W 001°01'1619.3
2018-Jun-19 00:40N 36°38' W 000°42'319.5
2018-Jun-19 00:30N 36°38' W 000°38'2019.4
2018-Jun-18 23:28N 36°41' W 000°14'919.6
2018-Jun-18 23:00N 36°43' W 000°02'1119.7
2018-Jun-18 22:27N 36°44' E 000°11'1719.2
2018-Jun-18 21:36N 36°47' E 000°31'218.9
2018-Jun-18 21:30N 36°47' E 000°34'919.0
2018-Jun-18 21:00N 36°49' E 000°45'919.1
2018-Jun-18 20:30N 36°51' E 000°57'1019.2
2018-Jun-18 20:00N 36°52' E 001°09'1019.1
2018-Jun-18 19:30N 36°53' E 001°21'1019.1
2018-Jun-18 19:00N 36°54' E 001°32'918.9
2018-Jun-18 18:30N 36°56' E 001°44'918.7
2018-Jun-18 18:00N 36°57' E 001°56'918.4
2018-Jun-18 17:30N 36°59' E 002°07'918.6
2018-Jun-18 17:00N 37°00' E 002°18'1019.4
2018-Jun-18 16:30N 37°01' E 002°31'1019.9
2018-Jun-18 16:00N 37°02' E 002°43'1020.4
2018-Jun-18 15:30N 37°02' E 002°56'1120.9
2018-Jun-18 15:00N 37°03' E 003°09'1020.9
2018-Jun-18 14:30N 37°05' E 003°22'1020.4
2018-Jun-18 14:00N 37°06' E 003°34'  
2018-Jun-16 06:38N 37°20' E 023°45'219.2
2018-Jun-16 06:30N 37°22' E 023°45'1019.2
2018-Jun-16 06:01N 37°32' E 023°45'1019.3
2018-Jun-16 05:31N 37°41' E 023°42'1019.2
2018-Jun-16 05:00N 37°50' E 023°37'612.6
2018-Jun-16 04:30N 37°56' E 023°36'1 2.6
2018-Jun-16 04:00N 37°57' E 023°35'0 0.0
2018-Jun-16 03:30N 37°57' E 023°35'0 0.0
2018-Jun-16 03:00N 37°57' E 023°35'0 0.0
2018-Jun-16 02:30N 37°57' E 023°35'0 0.0
2018-Jun-16 02:00N 37°57' E 023°35'0 0.0
2018-Jun-16 01:30N 37°57' E 023°35'0 0.0
2018-Jun-16 01:00N 37°57' E 023°35'0 0.0
2018-Jun-16 00:30N 37°57' E 023°35'0 0.0
2018-Jun-16 00:00N 37°57' E 023°35'0 0.0
2018-Jun-15 23:30N 37°57' E 023°35'0 0.0
2018-Jun-15 23:00N 37°57' E 023°35'0 0.0
2018-Jun-15 22:30N 37°57' E 023°35'0 0.0
2018-Jun-15 22:00N 37°57' E 023°35'0 0.0
2018-Jun-15 21:30N 37°57' E 023°35'0 0.0
2018-Jun-15 21:00N 37°57' E 023°35'0 0.0
2018-Jun-15 20:30N 37°57' E 023°35'0 0.0
2018-Jun-15 20:00N 37°57' E 023°35'0 0.0
2018-Jun-15 19:30N 37°57' E 023°35'0 0.0
2018-Jun-15 19:00N 37°57' E 023°35'0 0.1
2018-Jun-15 18:30N 37°57' E 023°35'0 0.0
2018-Jun-15 18:00N 37°57' E 023°35'0 0.0
2018-Jun-15 17:30N 37°57' E 023°35'0 0.0
2018-Jun-15 17:00N 37°57' E 023°35'0 0.0
2018-Jun-15 16:30N 37°57' E 023°35'0 0.0
2018-Jun-15 16:00N 37°57' E 023°35'0 0.0
2018-Jun-15 15:30N 37°57' E 023°35'0 0.0
2018-Jun-15 15:00N 37°57' E 023°35'0 0.0
2018-Jun-15 14:30N 37°57' E 023°35'0 0.0
2018-Jun-15 14:00N 37°57' E 023°35'0 0.0
2018-Jun-15 13:30N 37°57' E 023°35'0 0.0
2018-Jun-15 13:00N 37°57' E 023°35'0 0.0
2018-Jun-15 12:30N 37°57' E 023°35'0 0.0
2018-Jun-15 12:00N 37°57' E 023°35'0 0.0
2018-Jun-15 11:30N 37°57' E 023°35'0 0.0
2018-Jun-15 11:00N 37°57' E 023°35'0 0.0
2018-Jun-15 10:30N 37°57' E 023°35'0 0.0
2018-Jun-15 10:00N 37°57' E 023°35'0 0.0
2018-Jun-15 09:30N 37°57' E 023°35'0 0.0
2018-Jun-15 09:00N 37°57' E 023°35'0 0.0
2018-Jun-15 08:30N 37°57' E 023°35'0 0.0
2018-Jun-15 08:00N 37°57' E 023°35'0 0.0
2018-Jun-15 07:30N 37°57' E 023°35'0 0.0
2018-Jun-15 07:00N 37°57' E 023°35'0 0.0
2018-Jun-15 06:30N 37°57' E 023°35'0 0.0
2018-Jun-15 06:00N 37°57' E 023°35'0 0.0
2018-Jun-15 05:30N 37°57' E 023°35'0 0.8
2018-Jun-15 05:00N 37°57' E 023°35'2 4.6
2018-Jun-15 04:30N 37°55' E 023°35'2 3.1
2018-Jun-15 04:00N 37°53' E 023°35'0 0.7
2018-Jun-15 03:30N 37°53' E 023°35'1 1.0
2018-Jun-15 03:00N 37°52' E 023°35'2 4.8
2018-Jun-15 02:30N 37°51' E 023°38'612.4
2018-Jun-15 02:01N 37°46' E 023°43'816.2
2018-Jun-15 01:31N 37°38' E 023°46'816.8
2018-Jun-15 01:01N 37°30' E 023°50'816.9
2018-Jun-15 00:31N 37°23' E 023°54'816.8
2018-Jun-15 00:01N 37°15' E 023°58'1316.5
2018-Jun-14 23:13N 37°02' E 024°02'616.2
2018-Jun-14 22:51N 36°57' E 024°04'616.1
2018-Jun-14 22:29N 36°51' E 024°06'816.0
2018-Jun-14 22:00N 36°44' E 024°09'816.7
2018-Jun-14 21:31N 36°36' E 024°13'816.2
2018-Jun-14 21:00N 36°31' E 024°21'1116.3
2018-Jun-14 20:21N 36°25' E 024°32'716.4
2018-Jun-14 19:56N 36°22' E 024°39'716.3
2018-Jun-14 19:31N 36°18' E 024°46'916.0
2018-Jun-14 18:58N 36°13' E 024°55'3116.2
2018-Jun-14 17:03N 35°56' E 025°27'36716.6
2018-Jun-13 19:00N 32°12' E 031°18'  
Track history (hours):
 
Tides and Currents Weather Stations Pressure Air Temp Water Temp Dewpoint Dewpoint Depression Visibility Wind Speed Wind Dir Waves Ship Positions

Thalassa Niki

Last reported at 2018-Jun-23 18:58 UTC. Time now 2018-Jun-23 19:16 UTC.
Position N 51°18' E 004°16'.

Length 368 m; draft 14.3 m.

Type: Ship (hazmat cat D). MMSI: 564728000.

Date/timePositionNaut miles runAvg speedWind from/ knotsBaromVisibWave heightAir tempDewpointWater temp
2018-Jun-23 18:58N 51°18' E 004°16'0 0.0
2018-Jun-23 18:28N 51°18' E 004°16'0 0.0
2018-Jun-23 17:58N 51°18' E 004°16'0 0.0
2018-Jun-23 17:28N 51°18' E 004°16'0 0.0
2018-Jun-23 16:58N 51°18' E 004°16'0 0.0
2018-Jun-23 16:28N 51°18' E 004°16'0 0.0
2018-Jun-23 15:58N 51°18' E 004°16'0 0.0
2018-Jun-23 15:28N 51°18' E 004°16'0 0.0
2018-Jun-23 14:58N 51°18' E 004°16'0 0.0
2018-Jun-23 14:28N 51°18' E 004°16'0 0.0
2018-Jun-23 13:58N 51°18' E 004°16'0 0.0
2018-Jun-23 13:28N 51°18' E 004°16'0 0.0
2018-Jun-23 12:58N 51°18' E 004°16'0 0.0
2018-Jun-23 12:28N 51°18' E 004°16'0 0.0
2018-Jun-23 11:58N 51°18' E 004°16'0 0.0
2018-Jun-23 11:28N 51°18' E 004°16'0 0.0
2018-Jun-23 10:58N 51°18' E 004°16'0 0.0
2018-Jun-23 10:28N 51°18' E 004°16'0 0.0
2018-Jun-23 09:58N 51°18' E 004°16'0 0.0
2018-Jun-23 09:28N 51°18' E 004°16'0 0.0
2018-Jun-23 08:58N 51°18' E 004°16'0 0.0
2018-Jun-23 08:28N 51°18' E 004°16'0 0.0
2018-Jun-23 07:58N 51°18' E 004°16'0 0.1
2018-Jun-23 07:28N 51°18' E 004°16'0 0.1
2018-Jun-23 06:58N 51°18' E 004°16'0 0.0
2018-Jun-23 06:28N 51°18' E 004°16'0 0.0
2018-Jun-23 05:58N 51°18' E 004°16'0 0.0
2018-Jun-23 05:28N 51°18' E 004°16'0 0.0
2018-Jun-23 04:58N 51°18' E 004°16'0 0.0
2018-Jun-23 04:28N 51°18' E 004°16'0 0.0
2018-Jun-23 03:58N 51°18' E 004°16'0 0.0
2018-Jun-23 03:28N 51°18' E 004°16'0 0.0
2018-Jun-23 02:58N 51°18' E 004°16'0 0.0
2018-Jun-23 02:28N 51°18' E 004°16'0 0.0
2018-Jun-23 01:58N 51°18' E 004°16'0 0.0
2018-Jun-23 01:28N 51°18' E 004°16'0 0.0
2018-Jun-23 00:58N 51°18' E 004°16'0 0.0
2018-Jun-23 00:28N 51°18' E 004°16'0 0.0
2018-Jun-22 23:58N 51°18' E 004°16'0 0.0
2018-Jun-22 23:28N 51°18' E 004°16'0 0.0
2018-Jun-22 22:58N 51°18' E 004°16'0 0.0
2018-Jun-22 22:28N 51°18' E 004°16'0 0.0
2018-Jun-22 21:58N 51°18' E 004°16'0 0.0
2018-Jun-22 21:28N 51°18' E 004°16'0 0.0
2018-Jun-22 21:00N 51°18' E 004°16'1 1.2
2018-Jun-22 20:30N 51°18' E 004°16'2 4.7
2018-Jun-22 20:00N 51°21' E 004°16'5 9.2
2018-Jun-22 19:30N 51°24' E 004°11'510.8
2018-Jun-22 19:00N 51°23' E 004°02'3 6.7
2018-Jun-22 18:30N 51°24' E 003°58'511.0
2018-Jun-22 18:00N 51°21' E 003°51'612.3
2018-Jun-22 17:30N 51°24' E 003°43'5 9.5
2018-Jun-22 17:00N 51°26' E 003°36'4 8.7
2018-Jun-22 16:30N 51°25' E 003°29'815.4
2018-Jun-22 16:01N 51°24' E 003°16'714.8
2018-Jun-22 15:31N 51°24' E 003°05'714.6
2018-Jun-22 15:00N 51°25' E 002°53'612.9
2018-Jun-22 14:30N 51°22' E 002°44'3 5.2
2018-Jun-22 14:00N 51°22' E 002°39'3 5.1
2018-Jun-22 13:30N 51°22' E 002°35'3 5.5
2018-Jun-22 13:00N 51°22' E 002°31'3 5.8
2018-Jun-22 12:30N 51°21' E 002°27'3 5.9
2018-Jun-22 12:00N 51°20' E 002°22'3 5.9
2018-Jun-22 11:30N 51°19' E 002°18'3 6.5
2018-Jun-22 11:00N 51°17' E 002°13'3 6.4
2018-Jun-22 10:30N 51°16' E 002°09'3 6.7
2018-Jun-22 10:00N 51°13' E 002°05'714.4
2018-Jun-22 09:30N 51°10' E 001°54'714.7
2018-Jun-22 09:01N 51°07' E 001°44'815.4
2018-Jun-22 08:31N 51°01' E 001°36'917.6
2018-Jun-22 08:01N 50°53' E 001°29'918.6
2018-Jun-22 07:30N 50°44' E 001°24'917.7
2018-Jun-22 07:00N 50°38' E 001°15'918.0
2018-Jun-22 06:30N 50°33' E 001°03'917.9
2018-Jun-22 06:00N 50°29' E 000°50'1019.2
2018-Jun-22 05:30N 50°26' E 000°36'1019.7
2018-Jun-22 05:00N 50°23' E 000°21'1020.3
2018-Jun-22 04:30N 50°20' E 000°06'1121.1
2018-Jun-22 04:00N 50°17' W 000°10'1121.4
2018-Jun-22 03:31N 50°15' W 000°26'1121.5
2018-Jun-22 03:01N 50°13' W 000°43'1121.3
2018-Jun-22 02:30N 50°10' W 000°59'1121.3
2018-Jun-22 02:00N 50°06' W 001°14'1121.3
2018-Jun-22 01:29N 50°04' W 001°31'2320.7
2018-Jun-22 00:21N 49°58' W 002°06'720.1
2018-Jun-22 00:00N 49°56' W 002°17'1019.8
2018-Jun-21 23:31N 49°53' W 002°31'1019.6
2018-Jun-21 23:00N 49°49' W 002°45'1019.6
2018-Jun-21 22:30N 49°45' W 002°59'1019.4
2018-Jun-21 22:00N 49°41' W 003°13'1019.4
2018-Jun-21 21:30N 49°36' W 003°26'1019.6
2018-Jun-21 21:00N 49°32' W 003°40'1019.6
2018-Jun-21 20:29N 49°28' W 003°54'5518.3
2018-Jun-21 17:31N 49°01' W 005°06'018.3
2018-Jun-21 17:30N 49°00' W 005°06'917.8
2018-Jun-21 17:00N 48°56' W 005°18'917.6
2018-Jun-21 16:31N 48°51' W 005°29'917.4
2018-Jun-21 16:00N 48°45' W 005°39'917.5
2018-Jun-21 15:29N 48°37' W 005°46'1115.8
2018-Jun-21 14:48N 48°28' W 005°54'3517.7
2018-Jun-21 12:48N 47°56' W 006°17'2918.7
2018-Jun-21 11:15N 47°31' W 006°38'2319.0
2018-Jun-21 10:02N 47°10' W 006°53'318.8
2018-Jun-21 09:54N 47°08' W 006°55'11418.5
2018-Jun-21 03:45N 45°27' W 008°09'34718.1
2018-Jun-20 08:33N 39°48' W 009°51'119.7
2018-Jun-20 08:29N 39°47' W 009°51'1219.2
2018-Jun-20 07:51N 39°34' W 009°51'819.4
2018-Jun-20 07:27N 39°27' W 009°51'919.6
2018-Jun-20 07:00N 39°18' W 009°51'1019.6
2018-Jun-20 06:30N 39°08' W 009°51'1019.4
2018-Jun-20 06:00N 38°58' W 009°52'1019.3
2018-Jun-20 05:31N 38°49' W 009°52'1019.3
2018-Jun-20 05:00N 38°39' W 009°50'918.8
2018-Jun-20 04:30N 38°30' W 009°48'918.3
2018-Jun-20 04:00N 38°21' W 009°45'918.5
2018-Jun-20 03:31N 38°12' W 009°42'918.9
2018-Jun-20 03:01N 38°03' W 009°39'1019.0
2018-Jun-20 02:31N 37°54' W 009°37'1118.9
2018-Jun-20 01:56N 37°43' W 009°34'819.1
2018-Jun-20 01:30N 37°35' W 009°32'2418.9
2018-Jun-20 00:13N 37°11' W 009°25'819.5
2018-Jun-19 23:47N 37°03' W 009°22'719.7
2018-Jun-19 23:26N 36°56' W 009°20'2118.1
2018-Jun-19 22:16N 36°42' W 009°01'619.1
2018-Jun-19 21:57N 36°40' W 008°54'1219.3
2018-Jun-19 21:20N 36°37' W 008°39'619.4
2018-Jun-19 21:00N 36°35' W 008°32'1019.2
2018-Jun-19 20:31N 36°32' W 008°20'1019.4
2018-Jun-19 20:00N 36°29' W 008°09'33118.5
2018-Jun-19 02:07N 36°33' W 001°16'419.2
2018-Jun-19 01:55N 36°34' W 001°12'919.1
2018-Jun-19 01:28N 36°35' W 001°01'1619.3
2018-Jun-19 00:40N 36°38' W 000°42'319.5
2018-Jun-19 00:30N 36°38' W 000°38'2019.4
2018-Jun-18 23:28N 36°41' W 000°14'919.6
2018-Jun-18 23:00N 36°43' W 000°02'1119.7
2018-Jun-18 22:27N 36°44' E 000°11'1719.2
2018-Jun-18 21:36N 36°47' E 000°31'218.9
2018-Jun-18 21:30N 36°47' E 000°34'919.0
2018-Jun-18 21:00N 36°49' E 000°45'919.1
2018-Jun-18 20:30N 36°51' E 000°57'1019.2
2018-Jun-18 20:00N 36°52' E 001°09'1019.1
2018-Jun-18 19:30N 36°53' E 001°21'1019.1
2018-Jun-18 19:00N 36°54' E 001°32'918.9
2018-Jun-18 18:30N 36°56' E 001°44'918.7
2018-Jun-18 18:00N 36°57' E 001°56'918.4
2018-Jun-18 17:30N 36°59' E 002°07'918.6
2018-Jun-18 17:00N 37°00' E 002°18'1019.4
2018-Jun-18 16:30N 37°01' E 002°31'1019.9
2018-Jun-18 16:00N 37°02' E 002°43'1020.4
2018-Jun-18 15:30N 37°02' E 002°56'1120.9
2018-Jun-18 15:00N 37°03' E 003°09'1020.9
2018-Jun-18 14:30N 37°05' E 003°22'1020.4
2018-Jun-18 14:00N 37°06' E 003°34'  
2018-Jun-16 06:38N 37°20' E 023°45'219.2
2018-Jun-16 06:30N 37°22' E 023°45'1019.2
2018-Jun-16 06:01N 37°32' E 023°45'1019.3
2018-Jun-16 05:31N 37°41' E 023°42'1019.2
2018-Jun-16 05:00N 37°50' E 023°37'612.6
2018-Jun-16 04:30N 37°56' E 023°36'1 2.6
2018-Jun-16 04:00N 37°57' E 023°35'0 0.0
2018-Jun-16 03:30N 37°57' E 023°35'0 0.0
2018-Jun-16 03:00N 37°57' E 023°35'0 0.0
2018-Jun-16 02:30N 37°57' E 023°35'0 0.0
2018-Jun-16 02:00N 37°57' E 023°35'0 0.0
2018-Jun-16 01:30N 37°57' E 023°35'0 0.0
2018-Jun-16 01:00N 37°57' E 023°35'0 0.0
2018-Jun-16 00:30N 37°57' E 023°35'0 0.0
2018-Jun-16 00:00N 37°57' E 023°35'0 0.0
2018-Jun-15 23:30N 37°57' E 023°35'0 0.0
2018-Jun-15 23:00N 37°57' E 023°35'0 0.0
2018-Jun-15 22:30N 37°57' E 023°35'0 0.0
2018-Jun-15 22:00N 37°57' E 023°35'0 0.0
2018-Jun-15 21:30N 37°57' E 023°35'0 0.0
2018-Jun-15 21:00N 37°57' E 023°35'0 0.0
2018-Jun-15 20:30N 37°57' E 023°35'0 0.0
2018-Jun-15 20:00N 37°57' E 023°35'0 0.0
2018-Jun-15 19:30N 37°57' E 023°35'0 0.0
2018-Jun-15 19:00N 37°57' E 023°35'0 0.1
2018-Jun-15 18:30N 37°57' E 023°35'0 0.0
2018-Jun-15 18:00N 37°57' E 023°35'0 0.0
2018-Jun-15 17:30N 37°57' E 023°35'0 0.0
2018-Jun-15 17:00N 37°57' E 023°35'0 0.0
2018-Jun-15 16:30N 37°57' E 023°35'0 0.0
2018-Jun-15 16:00N 37°57' E 023°35'0 0.0
2018-Jun-15 15:30N 37°57' E 023°35'0 0.0
2018-Jun-15 15:00N 37°57' E 023°35'0 0.0
2018-Jun-15 14:30N 37°57' E 023°35'0 0.0
2018-Jun-15 14:00N 37°57' E 023°35'0 0.0
2018-Jun-15 13:30N 37°57' E 023°35'0 0.0
2018-Jun-15 13:00N 37°57' E 023°35'0 0.0
2018-Jun-15 12:30N 37°57' E 023°35'0 0.0
2018-Jun-15 12:00N 37°57' E 023°35'0 0.0
2018-Jun-15 11:30N 37°57' E 023°35'0 0.0
2018-Jun-15 11:00N 37°57' E 023°35'0 0.0
2018-Jun-15 10:30N 37°57' E 023°35'0 0.0
2018-Jun-15 10:00N 37°57' E 023°35'0 0.0
2018-Jun-15 09:30N 37°57' E 023°35'0 0.0
2018-Jun-15 09:00N 37°57' E 023°35'0 0.0
2018-Jun-15 08:30N 37°57' E 023°35'0 0.0
2018-Jun-15 08:00N 37°57' E 023°35'0 0.0
2018-Jun-15 07:30N 37°57' E 023°35'0 0.0
2018-Jun-15 07:00N 37°57' E 023°35'0 0.0
2018-Jun-15 06:30N 37°57' E 023°35'0 0.0
2018-Jun-15 06:00N 37°57' E 023°35'0 0.0
2018-Jun-15 05:30N 37°57' E 023°35'0 0.8
2018-Jun-15 05:00N 37°57' E 023°35'2 4.6
2018-Jun-15 04:30N 37°55' E 023°35'2 3.1
2018-Jun-15 04:00N 37°53' E 023°35'0 0.7
2018-Jun-15 03:30N 37°53' E 023°35'1 1.0
2018-Jun-15 03:00N 37°52' E 023°35'2 4.8
2018-Jun-15 02:30N 37°51' E 023°38'612.4
2018-Jun-15 02:01N 37°46' E 023°43'816.2
2018-Jun-15 01:31N 37°38' E 023°46'816.8
2018-Jun-15 01:01N 37°30' E 023°50'816.9
2018-Jun-15 00:31N 37°23' E 023°54'816.8
2018-Jun-15 00:01N 37°15' E 023°58'1316.5
2018-Jun-14 23:13N 37°02' E 024°02'616.2
2018-Jun-14 22:51N 36°57' E 024°04'616.1
2018-Jun-14 22:29N 36°51' E 024°06'816.0
2018-Jun-14 22:00N 36°44' E 024°09'816.7
2018-Jun-14 21:31N 36°36' E 024°13'816.2
2018-Jun-14 21:00N 36°31' E 024°21'1116.3
2018-Jun-14 20:21N 36°25' E 024°32'716.4
2018-Jun-14 19:56N 36°22' E 024°39'716.3
2018-Jun-14 19:31N 36°18' E 024°46'916.0
2018-Jun-14 18:58N 36°13' E 024°55'3116.2
2018-Jun-14 17:03N 35°56' E 025°27'36716.6
2018-Jun-13 19:00N 32°12' E 031°18'  

Dump ship's entire track history